• Join FlightAware (Why Join?)
  • Login
  • US Flag GB Flag 
05:51 EDT


 

Airport Tracker/Info


-or-


 

Live Flight TrackerFlight Track Log ✈ SWA2130 ✈ 05-May-2013 ✈ KSFO - KLAX

Flight Track Log - Related Links

Times and Time Zones

All times are in EDT time to prevent confusion due to time zone crossing. See the SWA2130 flight status page for this flight to view local times or setup timezone preferences in your user account.

Time Position Orientation Groundspeed Altitude Reporting Facility
EDT Latitude Longitude Course Direction KTS MPH feet Rate Location/Type
19:58 37.6117 -122.3503 136° Southeast 149 171 1,400  Level Oakland Center
19:59 37.5969 -122.2836 106° East 195 224 4,400 3,420 Climbing Oakland Center
20:00 37.5764 -122.1978 107° East 249 287 8,400 3,360 Climbing Oakland Center
20:01 37.5506 -122.1069 110° East 275 316 11,300 2,820 Climbing Oakland Center
20:02 37.4483 -122.0383 152° Southeast 350 403 14,300 3,180 Climbing Oakland Center
20:03 37.3567 -121.9783 153° Southeast 369 425 17,900 3,240 Climbing Oakland Center
20:04 37.3047 -122.1724 136° Southeast  Level FlightAware Approximate
20:04 37.2625 -121.9153 152° Southeast 382 440 21,000  Level Oakland Center
20:05 37.1633 -121.8494 152° Southeast 402 463 23,600 2,460 Climbing Oakland Center
20:06 37.0622 -121.7828 152° Southeast 409 471 26,100 2,280 Climbing Oakland Center
20:08 36.9631 -121.7081 149° Southeast 415 478 28,300 2,100 Climbing Oakland Center
20:09 36.8836 -121.5958 131° Southeast 428 493 30,400 1,800 Climbing Oakland Center
20:10 36.8058 -121.4903 133° Southeast 432 497 32,000 1,440 Climbing Oakland Center
20:11 36.7228 -121.3806 133° Southeast 435 501 33,400 960 Climbing Oakland Center
20:13 36.5336 -121.1303 133° Southeast 453 521 35,000 480 Climbing Oakland Center
20:14 36.4458 -121.0150 133° Southeast 459 528 35,000  Level Oakland Center
20:15 36.3597 -120.9008 133° Southeast 455 524 35,000  Level Oakland Center
20:16 36.2731 -120.7881 134° Southeast 453 521 35,000  Level Oakland Center
20:17 36.1869 -120.6753 133° Southeast 452 520 35,000  Level Oakland Center
20:18 36.1008 -120.5644 134° Southeast 448 516 35,000  Level Oakland Center
20:19 36.0128 -120.4464 133° Southeast 479 551 35,000  Level Oakland Center
20:20 35.9258 -120.3381 135° Southeast 447 514 35,000  Level Oakland Center
20:21 35.8394 -120.2275 134° Southeast 445 512 35,000  Level Oakland Center
20:22 35.7511 -120.1133 134° Southeast 454 522 35,000  Level Oakland Center
20:23 35.6631 -120.0003 134° Southeast 454 522 35,000 -180 Level Oakland Center
20:24 35.5608 -119.9053 143° Southeast 455 524 34,700 -660 Descending Oakland Center
20:25 35.4572 -119.8147 145° Southeast 454 522 33,700 -1,020 Descending Oakland Center
20:26 35.3547 -119.7272 145° Southeast 448 516 32,700 -1,080 Descending Oakland Center
20:26 35.2942 -119.6742 144° Southeast 447 514 32,100 -1,020 Descending Los Angeles Center
20:27 35.1942 -119.5886 145° Southeast 441 507 31,100 -1,260 Descending Los Angeles Center
20:28 35.0958 -119.5058 145° Southeast 432 497 29,600 -2,040 Descending Los Angeles Center
20:29 34.9833 -119.4086 145° Southeast 416 479 26,900 -2,280 Descending Los Angeles Center
20:31 34.8931 -119.3319 145° Southeast 399 459 24,900 -2,040 Descending Los Angeles Center
20:32 34.8072 -119.2592 145° Southeast 380 437 22,800 -2,040 Descending Los Angeles Center
20:33 34.7225 -119.1872 145° Southeast 374 430 20,700 -2,100 Descending Los Angeles Center
20:34 34.6256 -119.1064 146° Southeast 374 430 18,500 -2,100 Descending Los Angeles Center
20:35 34.5397 -119.0344 145° Southeast 372 428 16,400 -2,040 Descending Los Angeles Center
20:36 34.4569 -118.9639 145° Southeast 364 419 14,300 -2,040 Descending Los Angeles Center
20:37 34.3775 -118.8969 145° Southeast 349 402 12,300 -1,560 Descending Los Angeles Center
20:38 34.2919 -118.8731 167° South 315 362 11,100 -1,140 Descending Los Angeles Center
20:39 34.2017 -118.8547 170° South 273 314 10,000 -1,200 Descending Los Angeles Center
20:40 34.1278 -118.8372 169° South 271 312 8,700 -1,140 Descending Los Angeles Center
20:41 34.0653 -118.8217 168° South 235 270 7,700 -1,200 Descending Los Angeles Center
20:42 34.0044 -118.8125 173° South 221 254 6,300 -1,260 Descending Los Angeles Center
20:43 33.9533 -118.7858 157° South 216 249 5,200 -1,140 Descending Los Angeles Center
20:44 33.9306 -118.7103 110° East 217 250 4,000 -1,020 Descending Los Angeles Center
20:45 33.9289 -118.6342 91° East 215 247 3,000 -840 Descending Los Angeles Center
20:46 33.9369 -118.5531 83° East 196 226 2,100 -900 Descending Los Angeles Center
20:47 33.9428 -118.4967 83° East 172 198 1,200 -780 Descending Los Angeles Center
20:48 33.9469 -118.4531 83° East 137 158 500 -540 Descending Los Angeles Center
20:49 33.9503 -118.4139 84° East 133 153 200 -300 Descending Los Angeles Center
20:51 33.9425 -118.4081 104° East  Level Estimated